createdAt,value
2022-12-03T00:01:38.852Z,11.60
2022-12-03T00:04:12.986Z,10.93
2022-12-03T00:06:45.828Z,10.88
2022-12-03T00:09:18.628Z,10.88
2022-12-03T00:11:51.940Z,11.55
2022-12-03T00:14:24.705Z,11.05
2022-12-03T00:16:57.477Z,10.52
2022-12-03T00:19:31.690Z,11.90
2022-12-03T00:22:04.431Z,11.63
2022-12-03T00:24:37.188Z,9.77
2022-12-03T00:27:09.986Z,11.40
2022-12-03T00:29:42.814Z,10.52
2022-12-03T00:32:15.549Z,10.95
2022-12-03T00:34:49.775Z,11.32
2022-12-03T00:37:22.648Z,10.88
2022-12-03T00:39:55.421Z,10.82
2022-12-03T00:42:28.195Z,11.02
2022-12-03T00:45:00.981Z,10.73
2022-12-03T00:47:33.870Z,10.75
2022-12-03T00:50:09.617Z,11.02
2022-12-03T00:52:42.549Z,11.50
2022-12-03T00:55:15.380Z,12.15
2022-12-03T00:57:48.307Z,12.02
2022-12-03T01:00:24.549Z,12.20
2022-12-03T01:02:57.300Z,11.57
2022-12-03T01:05:31.549Z,11.23
2022-12-03T01:08:04.472Z,11.70
2022-12-03T01:10:37.350Z,11.30
2022-12-03T01:13:10.097Z,11.23
2022-12-03T01:15:43.031Z,12.10
2022-12-03T01:18:15.896Z,11.50
2022-12-03T01:20:50.120Z,12.45
2022-12-03T01:23:22.922Z,12.90
2022-12-03T01:25:55.733Z,10.95
2022-12-03T01:28:29.323Z,11.50
2022-12-03T01:31:19.543Z,11.18
2022-12-03T01:33:52.392Z,10.85
2022-12-03T01:36:26.745Z,11.48
2022-12-03T01:38:59.464Z,10.90
2022-12-03T01:41:33.155Z,10.60
2022-12-03T01:44:15.215Z,12.10
2022-12-03T01:46:49.019Z,10.85
2022-12-03T01:49:25.456Z,10.80
2022-12-03T01:52:01.089Z,10.82
2022-12-03T01:54:39.260Z,10.50
2022-12-03T01:57:21.177Z,10.15
2022-12-03T02:02:30.531Z,8.98
2022-12-03T02:05:08.130Z,11.05
2022-12-03T02:07:42.408Z,10.75
2022-12-03T02:10:17.480Z,11.75
2022-12-03T02:12:55.055Z,11.07
2022-12-03T02:15:28.204Z,10.93
2022-12-03T02:18:01.655Z,10.73
2022-12-03T02:20:40.731Z,10.50
2022-12-03T02:23:24.099Z,11.45
2022-12-03T02:25:58.284Z,10.57
2022-12-03T02:28:31.084Z,10.30
2022-12-03T02:31:05.173Z,11.27
2022-12-03T02:33:38.130Z,11.05
2022-12-03T02:36:12.055Z,11.48
2022-12-03T02:38:46.160Z,11.82
2022-12-03T02:41:39.954Z,11.70
2022-12-03T02:44:13.333Z,10.48
2022-12-03T02:46:46.568Z,10.27
2022-12-03T02:49:19.415Z,9.80
2022-12-03T02:51:52.232Z,10.63
2022-12-03T02:54:25.424Z,11.15
2022-12-03T02:56:59.713Z,12.15
2022-12-03T02:59:32.602Z,10.52
2022-12-03T03:02:05.599Z,11.18
2022-12-03T03:04:38.911Z,11.18
2022-12-03T03:07:11.859Z,10.98
2022-12-03T03:09:44.981Z,10.23
2022-12-03T03:12:19.265Z,11.65
2022-12-03T03:14:52.284Z,11.32
2022-12-03T03:17:25.704Z,9.73
2022-12-03T03:19:59.078Z,11.07
2022-12-03T03:22:34.401Z,10.15
2022-12-03T03:25:10.827Z,11.43
2022-12-03T03:27:46.608Z,11.25
2022-12-03T03:30:19.409Z,10.00
2022-12-03T03:32:52.248Z,10.05
2022-12-03T03:35:25.703Z,10.77
2022-12-03T03:37:59.368Z,11.77
2022-12-03T03:40:32.505Z,11.05
2022-12-03T03:43:08.159Z,10.93
2022-12-03T03:45:41.046Z,10.95
2022-12-03T03:48:14.842Z,10.85
2022-12-03T03:50:48.454Z,9.90
2022-12-03T03:53:27.947Z,11.73
2022-12-03T03:56:00.682Z,10.57
2022-12-03T03:58:35.421Z,11.55
2022-12-03T04:01:10.088Z,10.82
2022-12-03T04:03:43.020Z,10.55
2022-12-03T04:06:15.856Z,10.18
2022-12-03T04:08:48.852Z,10.10
2022-12-03T04:11:39.393Z,9.68
2022-12-03T04:14:13.551Z,9.60
2022-12-03T04:16:46.396Z,9.93
2022-12-03T04:19:19.456Z,9.52
2022-12-03T04:22:09.779Z,9.43
2022-12-03T04:24:43.100Z,10.02
2022-12-03T04:27:33.523Z,10.35
2022-12-03T04:30:09.258Z,9.60
2022-12-03T04:32:59.362Z,9.20
2022-12-03T04:35:44.171Z,8.27
2022-12-03T04:38:17.518Z,9.55
2022-12-03T04:41:04.005Z,9.57
2022-12-03T04:43:58.630Z,9.63
2022-12-03T04:46:32.852Z,8.95
2022-12-03T04:49:05.961Z,9.73
2022-12-03T04:51:38.806Z,8.98
2022-12-03T04:54:11.635Z,8.32
2022-12-03T04:56:44.732Z,8.00
2022-12-03T04:59:17.548Z,8.32
2022-12-03T05:01:51.829Z,9.48
2022-12-03T05:04:25.072Z,8.55
2022-12-03T05:06:57.945Z,9.68
2022-12-03T05:09:30.825Z,9.70
2022-12-03T05:12:03.943Z,9.18
2022-12-03T05:14:36.783Z,9.43
2022-12-03T05:17:10.986Z,8.80
2022-12-03T05:20:01.144Z,9.10
2022-12-03T05:22:34.097Z,9.88
2022-12-03T05:25:07.941Z,9.35
2022-12-03T05:27:40.756Z,8.70
2022-12-03T05:30:14.173Z,9.35
2022-12-03T05:32:48.368Z,9.82
2022-12-03T05:35:21.494Z,9.55
2022-12-03T05:37:54.344Z,8.85
2022-12-03T05:40:27.198Z,8.95
2022-12-03T05:43:01.216Z,8.75
2022-12-03T05:45:36.327Z,8.43
2022-12-03T05:48:12.522Z,8.77
2022-12-03T05:50:47.172Z,8.32
2022-12-03T05:53:21.035Z,8.43
2022-12-03T05:55:53.807Z,8.73
2022-12-03T05:58:26.645Z,8.25
2022-12-03T06:00:59.406Z,9.13
2022-12-03T06:03:33.854Z,8.57
2022-12-03T06:06:07.181Z,8.68
2022-12-03T06:08:40.067Z,8.73
2022-12-03T06:11:12.838Z,9.68
2022-12-03T06:13:45.584Z,9.00
2022-12-03T06:16:18.356Z,10.15
2022-12-03T06:18:52.973Z,9.45
2022-12-03T06:21:25.792Z,9.10
2022-12-03T06:23:58.637Z,9.13
2022-12-03T06:26:31.509Z,9.57
2022-12-03T06:29:04.275Z,8.82
2022-12-03T06:31:37.600Z,9.05
2022-12-03T06:34:11.783Z,9.00
2022-12-03T06:36:44.650Z,8.38
2022-12-03T06:39:18.612Z,8.68
2022-12-03T06:41:51.493Z,9.05
2022-12-03T06:44:24.225Z,9.15
2022-12-03T06:46:57.069Z,9.02
2022-12-03T06:49:31.251Z,8.77
2022-12-03T06:52:04.037Z,7.78
2022-12-03T06:54:36.847Z,9.50
2022-12-03T06:57:09.619Z,8.52
2022-12-03T06:59:42.337Z,9.45
2022-12-03T07:02:15.071Z,8.18
2022-12-03T07:04:49.359Z,9.23
2022-12-03T07:07:22.248Z,9.38
2022-12-03T07:09:55.913Z,9.93
2022-12-03T07:12:28.740Z,9.52
2022-12-03T07:15:01.587Z,9.98
2022-12-03T07:17:34.423Z,9.82
2022-12-03T07:20:10.810Z,8.98
2022-12-03T07:22:43.583Z,9.90
2022-12-03T07:25:21.422Z,10.20
2022-12-03T07:27:56.078Z,8.65
2022-12-03T07:30:29.072Z,8.82
2022-12-03T07:33:01.948Z,9.50
2022-12-03T07:35:36.181Z,9.93
2022-12-03T07:38:09.141Z,9.20
2022-12-03T07:40:41.956Z,10.07
2022-12-03T07:43:14.749Z,8.95
2022-12-03T07:45:47.531Z,9.38
2022-12-03T07:48:20.329Z,10.00
2022-12-03T07:50:54.537Z,9.75
2022-12-03T07:53:27.355Z,8.98
2022-12-03T07:56:00.139Z,8.73
2022-12-03T07:58:33.035Z,8.90
2022-12-03T08:01:07.122Z,9.75
2022-12-03T08:03:39.964Z,9.43
2022-12-03T08:06:14.241Z,9.23
2022-12-03T08:08:47.020Z,8.70
2022-12-03T08:11:20.006Z,8.32
2022-12-03T08:13:52.754Z,8.25
2022-12-03T08:16:25.953Z,9.07
2022-12-03T08:18:58.734Z,8.82
2022-12-03T08:21:37.402Z,9.98
2022-12-03T08:24:15.915Z,8.90
2022-12-03T08:26:50.457Z,9.38
2022-12-03T08:29:23.205Z,8.48
2022-12-03T08:31:57.159Z,9.90
2022-12-03T08:34:40.227Z,9.27
2022-12-03T08:37:17.612Z,8.95
2022-12-03T08:39:51.696Z,9.43
2022-12-03T08:42:45.274Z,9.57
2022-12-03T08:45:40.561Z,9.60
2022-12-03T08:48:34.144Z,10.25
2022-12-03T08:51:14.224Z,9.32
2022-12-03T08:53:54.214Z,8.20
2022-12-03T08:56:30.839Z,8.75
2022-12-03T08:59:22.569Z,9.00
2022-12-03T09:01:55.689Z,8.38
2022-12-03T09:04:32.161Z,8.73
2022-12-03T09:07:05.301Z,7.65
2022-12-03T09:09:39.480Z,9.27
2022-12-03T09:12:12.278Z,8.07
2022-12-03T09:14:45.398Z,8.30
2022-12-03T09:17:18.140Z,8.68
2022-12-03T09:19:50.926Z,8.27
2022-12-03T09:22:23.906Z,8.25
2022-12-03T09:24:58.467Z,8.70
2022-12-03T09:27:31.374Z,7.78
2022-12-03T09:30:04.724Z,8.93
2022-12-03T09:32:37.443Z,7.28
2022-12-03T09:35:10.663Z,9.30
2022-12-03T09:37:43.512Z,7.72
2022-12-03T09:40:18.436Z,8.07
2022-12-03T09:42:51.795Z,8.38
2022-12-03T09:45:24.608Z,8.68
2022-12-03T09:47:57.549Z,10.25
2022-12-03T09:50:31.914Z,8.40
2022-12-03T09:53:05.011Z,8.90
2022-12-03T09:55:39.643Z,8.40
2022-12-03T09:58:13.985Z,8.80
2022-12-03T10:00:49.116Z,8.85
2022-12-03T10:03:29.764Z,8.55
2022-12-03T10:06:02.927Z,8.43
2022-12-03T10:08:35.739Z,7.85
2022-12-03T10:11:09.975Z,7.50
2022-12-03T10:13:45.669Z,8.25
2022-12-03T10:16:21.025Z,7.53
2022-12-03T10:18:56.764Z,7.68
2022-12-03T10:21:35.687Z,8.05
2022-12-03T10:24:23.288Z,8.20
2022-12-03T10:26:59.688Z,7.93
2022-12-03T10:29:35.066Z,7.63
2022-12-03T10:32:10.116Z,7.10
2022-12-03T10:34:44.857Z,7.22
2022-12-03T10:37:19.806Z,7.78
2022-12-03T10:39:58.128Z,8.30
2022-12-03T10:42:35.018Z,7.10
2022-12-03T10:45:13.419Z,8.43
2022-12-03T10:48:04.084Z,7.45
2022-12-03T10:50:54.345Z,6.85
2022-12-03T10:53:31.519Z,8.30
2022-12-03T10:56:07.084Z,7.60
2022-12-03T10:58:41.788Z,7.82
2022-12-03T11:01:17.883Z,7.20
2022-12-03T11:03:51.793Z,7.40
2022-12-03T11:06:24.792Z,8.00
2022-12-03T11:09:00.443Z,7.72
2022-12-03T11:11:35.541Z,8.45
2022-12-03T11:14:12.253Z,7.43
2022-12-03T11:17:09.961Z,8.10
2022-12-03T11:19:53.432Z,7.10
2022-12-03T11:22:46.284Z,8.52
2022-12-03T11:25:47.942Z,8.43
2022-12-03T11:28:53.663Z,8.00
2022-12-03T11:31:40.638Z,7.25
2022-12-03T11:34:49.023Z,7.95
2022-12-03T11:37:26.860Z,7.43
2022-12-03T11:40:28.292Z,7.72
2022-12-03T11:43:01.001Z,7.45
2022-12-03T11:45:37.761Z,7.65
2022-12-03T11:48:15.912Z,7.18
2022-12-03T11:50:52.686Z,7.32
2022-12-03T11:53:27.794Z,7.57
2022-12-03T11:56:08.850Z,7.60
2022-12-03T11:58:45.332Z,8.07
2022-12-03T12:01:38.230Z,8.63
2022-12-03T12:04:32.997Z,7.80
2022-12-03T12:07:07.081Z,8.60
2022-12-03T12:09:55.137Z,8.13
2022-12-03T12:12:33.363Z,7.97
2022-12-03T12:15:51.152Z,8.45
2022-12-03T12:18:43.788Z,7.07
2022-12-03T12:21:43.893Z,8.23
2022-12-03T12:24:31.224Z,7.13
2022-12-03T12:27:07.466Z,7.15
2022-12-03T12:29:41.758Z,7.15
2022-12-03T12:32:16.700Z,7.10
2022-12-03T12:34:51.040Z,6.95
2022-12-03T12:37:33.015Z,6.20
2022-12-03T12:40:13.832Z,6.90
2022-12-03T12:42:52.322Z,6.63
2022-12-03T12:45:26.891Z,7.05
2022-12-03T12:48:06.725Z,6.53
2022-12-03T12:50:40.655Z,6.78
2022-12-03T12:53:24.063Z,7.15
2022-12-03T12:55:59.850Z,6.47
2022-12-03T12:58:34.332Z,6.90
2022-12-03T13:01:12.672Z,7.20
2022-12-03T13:03:45.716Z,6.97
2022-12-03T13:06:21.271Z,6.85
2022-12-03T13:08:58.170Z,7.35
2022-12-03T13:11:39.558Z,7.32
2022-12-03T13:14:17.667Z,5.65
2022-12-03T13:16:52.261Z,5.88
2022-12-03T13:19:26.661Z,6.43
2022-12-03T13:22:02.432Z,7.53
2022-12-03T13:24:39.087Z,6.63
2022-12-03T13:27:26.790Z,7.13
2022-12-03T13:30:02.921Z,6.72
2022-12-03T13:32:38.414Z,6.32
2022-12-03T13:35:27.724Z,6.53
2022-12-03T13:38:00.623Z,6.03
2022-12-03T13:40:35.689Z,6.30
2022-12-03T13:43:13.663Z,6.55
2022-12-03T13:45:48.283Z,6.63
2022-12-03T13:48:24.864Z,6.28
2022-12-03T13:50:58.016Z,6.68
2022-12-03T13:53:35.006Z,6.95
2022-12-03T13:56:26.665Z,6.80
2022-12-03T13:59:01.396Z,6.00
2022-12-03T14:01:34.648Z,6.93
2022-12-03T14:04:07.629Z,7.10
2022-12-03T14:06:40.698Z,7.72
2022-12-03T14:09:13.460Z,7.35
2022-12-03T14:12:07.762Z,7.63
2022-12-03T14:14:40.546Z,7.32
2022-12-03T14:17:13.456Z,7.30
2022-12-03T14:19:46.602Z,8.13
2022-12-03T14:22:23.235Z,7.38
2022-12-03T14:24:56.091Z,7.47
2022-12-03T14:27:30.396Z,7.38
2022-12-03T14:30:03.549Z,6.68
2022-12-03T14:32:36.426Z,7.03
2022-12-03T14:35:10.311Z,7.40
2022-12-03T14:37:43.285Z,6.88
2022-12-03T14:40:21.151Z,6.68
2022-12-03T14:42:56.026Z,6.25
2022-12-03T14:45:29.994Z,6.90
2022-12-03T14:48:02.956Z,6.78
2022-12-03T14:50:35.748Z,6.82
2022-12-03T14:53:08.611Z,7.10
2022-12-03T14:55:41.361Z,6.55
2022-12-03T14:58:15.429Z,6.55
2022-12-03T15:00:48.182Z,7.07
2022-12-03T15:03:21.123Z,6.68
2022-12-03T15:05:53.845Z,6.40
2022-12-03T15:08:26.605Z,6.97
2022-12-03T15:10:59.383Z,6.78
2022-12-03T15:13:33.685Z,6.68
2022-12-03T15:16:06.921Z,6.90
2022-12-03T15:18:39.703Z,7.60
2022-12-03T15:21:12.577Z,6.93
2022-12-03T15:23:45.298Z,7.70
2022-12-03T15:26:18.191Z,7.13
2022-12-03T15:28:52.524Z,7.43
2022-12-03T15:31:25.324Z,8.10
2022-12-03T15:33:58.075Z,7.75
2022-12-03T15:36:30.788Z,7.07
2022-12-03T15:39:03.655Z,6.88
2022-12-03T15:41:36.583Z,7.35
2022-12-03T15:44:10.765Z,7.43
2022-12-03T15:46:43.780Z,7.57
2022-12-03T15:49:16.640Z,6.35
2022-12-03T15:51:49.403Z,6.88
2022-12-03T15:54:22.218Z,7.60
2022-12-03T15:56:57.494Z,7.80
2022-12-03T15:59:31.870Z,7.28
2022-12-03T16:02:04.825Z,7.88
2022-12-03T16:04:37.664Z,6.78
2022-12-03T16:07:10.443Z,7.40
2022-12-03T16:09:43.347Z,7.22
2022-12-03T16:12:16.071Z,7.30
2022-12-03T16:14:50.335Z,8.35
2022-12-03T16:17:23.149Z,8.20
2022-12-03T16:19:56.220Z,7.82
2022-12-03T16:22:29.210Z,7.57
2022-12-03T16:25:03.200Z,7.88
2022-12-03T16:27:37.932Z,6.95
2022-12-03T16:30:13.812Z,7.07
2022-12-03T16:32:46.629Z,7.38
2022-12-03T16:35:19.496Z,7.72
2022-12-03T16:37:52.522Z,7.57
2022-12-03T16:40:25.306Z,7.25
2022-12-03T16:42:58.139Z,7.07
2022-12-03T16:46:01.520Z,8.00
2022-12-03T16:48:34.400Z,7.32
2022-12-03T16:51:07.740Z,7.35
2022-12-03T16:53:40.563Z,7.05
2022-12-03T16:56:13.592Z,7.60
2022-12-03T16:58:46.496Z,7.88
2022-12-03T17:01:20.749Z,7.40
2022-12-03T17:03:53.528Z,8.35
2022-12-03T17:06:26.340Z,8.25
2022-12-03T17:08:59.172Z,7.80
2022-12-03T17:11:32.042Z,7.80
2022-12-03T17:14:04.867Z,8.65
2022-12-03T17:16:39.045Z,8.38
2022-12-03T17:19:11.980Z,7.30
2022-12-03T17:21:44.752Z,7.82
2022-12-03T17:24:17.554Z,7.43
2022-12-03T17:26:50.385Z,8.55
2022-12-03T17:29:23.366Z,8.57
2022-12-03T17:31:57.810Z,8.30
2022-12-03T17:34:30.656Z,8.50
2022-12-03T17:37:03.570Z,8.75
2022-12-03T17:39:36.365Z,8.52
2022-12-03T17:42:09.193Z,9.00
2022-12-03T17:44:41.982Z,7.90
2022-12-03T17:47:45.840Z,8.60
2022-12-03T17:50:18.714Z,8.93
2022-12-03T17:52:51.466Z,8.02
2022-12-03T17:55:35.945Z,8.27
2022-12-03T17:58:11.290Z,8.80
2022-12-03T18:00:44.333Z,8.90
2022-12-03T18:03:18.671Z,9.75
2022-12-03T18:05:55.151Z,9.30
2022-12-03T18:08:28.052Z,9.35
2022-12-03T18:11:00.860Z,8.73
2022-12-03T18:13:33.724Z,8.93
2022-12-03T18:16:07.138Z,8.68
2022-12-03T18:18:41.479Z,8.77
2022-12-03T18:21:14.781Z,8.63
2022-12-03T18:23:47.830Z,9.25
2022-12-03T18:26:20.738Z,9.40
2022-12-03T18:28:53.642Z,8.15
2022-12-03T18:31:26.570Z,9.00
2022-12-03T18:34:00.830Z,8.48
2022-12-03T18:36:36.780Z,8.60
2022-12-03T18:39:19.918Z,9.10
2022-12-03T18:41:53.259Z,9.43
2022-12-03T18:44:26.102Z,8.38
2022-12-03T18:46:59.484Z,9.07
2022-12-03T18:49:33.707Z,8.88
2022-12-03T18:52:06.532Z,9.02
2022-12-03T18:54:39.421Z,9.52
2022-12-03T18:57:12.371Z,9.30
2022-12-03T18:59:45.342Z,8.60
2022-12-03T19:05:15.619Z,8.38
2022-12-03T19:07:51.086Z,8.40
2022-12-03T19:10:24.092Z,8.63
2022-12-03T19:12:57.193Z,9.10
2022-12-03T19:15:30.018Z,8.80
2022-12-03T19:18:03.155Z,8.73
2022-12-03T19:20:41.243Z,8.85
2022-12-03T19:23:14.045Z,8.95
2022-12-03T19:25:57.512Z,8.43
2022-12-03T19:28:31.085Z,7.85
2022-12-03T19:31:06.077Z,8.35
2022-12-03T19:33:39.350Z,8.32
2022-12-03T19:36:21.954Z,9.40
2022-12-03T19:38:57.297Z,8.80
2022-12-03T19:41:31.572Z,9.00
2022-12-03T19:44:09.369Z,10.23
2022-12-03T19:46:44.783Z,8.27
2022-12-03T19:49:20.962Z,8.63
2022-12-03T19:51:55.378Z,7.95
2022-12-03T19:54:28.196Z,9.45
2022-12-03T19:57:01.092Z,9.00
2022-12-03T19:59:33.918Z,9.18
2022-12-03T20:02:07.264Z,9.50
2022-12-03T20:04:40.216Z,8.98
2022-12-03T20:07:14.407Z,8.15
2022-12-03T20:09:47.176Z,9.15
2022-12-03T20:12:20.054Z,9.15
2022-12-03T20:14:52.851Z,9.20
2022-12-03T20:17:25.651Z,9.40
2022-12-03T20:19:58.414Z,10.13
2022-12-03T20:22:32.732Z,10.13
2022-12-03T20:25:06.492Z,9.38
2022-12-03T20:27:39.289Z,9.45
2022-12-03T20:30:12.741Z,9.32
2022-12-03T20:32:45.815Z,8.55
2022-12-03T20:35:18.955Z,8.88
2022-12-03T20:37:53.320Z,8.95
2022-12-03T20:40:26.071Z,9.60
2022-12-03T20:42:58.922Z,9.07
2022-12-03T20:45:31.743Z,10.23
2022-12-03T20:48:04.977Z,10.05
2022-12-03T20:50:39.008Z,10.25
2022-12-03T20:53:27.937Z,9.27
2022-12-03T20:56:02.582Z,8.70
2022-12-03T20:58:36.546Z,8.52
2022-12-03T21:01:15.423Z,8.95
2022-12-03T21:03:50.526Z,9.82
2022-12-03T21:06:24.715Z,9.40
2022-12-03T21:09:00.674Z,9.50
2022-12-03T21:11:35.847Z,9.73
2022-12-03T21:14:09.808Z,9.27
2022-12-03T21:17:07.050Z,9.52
2022-12-03T21:19:39.451Z,9.55
2022-12-03T21:22:12.403Z,9.70
2022-12-03T21:24:46.793Z,10.02
2022-12-03T21:27:21.868Z,10.25
2022-12-03T21:29:55.365Z,10.20
2022-12-03T21:32:28.354Z,9.88
2022-12-03T21:35:01.219Z,9.10
2022-12-03T21:37:34.062Z,10.80
2022-12-03T21:40:09.501Z,9.38
2022-12-03T21:42:42.421Z,9.85
2022-12-03T21:45:16.182Z,10.25
2022-12-03T21:47:49.206Z,10.50
2022-12-03T21:50:22.228Z,11.00
2022-12-03T21:52:55.690Z,10.77
2022-12-03T21:55:30.489Z,10.43
2022-12-03T21:58:03.298Z,9.88
2022-12-03T22:00:36.242Z,10.45
2022-12-03T22:03:09.025Z,9.98
2022-12-03T22:05:42.068Z,9.73
2022-12-03T22:08:14.930Z,10.50
2022-12-03T22:10:49.355Z,9.70
2022-12-03T22:13:22.182Z,10.50
2022-12-03T22:15:55.176Z,10.55
2022-12-03T22:18:28.034Z,9.57
2022-12-03T22:21:04.464Z,10.45
2022-12-03T22:23:37.256Z,9.70
2022-12-03T22:26:14.228Z,10.32
2022-12-03T22:28:49.389Z,10.80
2022-12-03T22:31:22.287Z,11.20
2022-12-03T22:33:55.113Z,10.70
2022-12-03T22:36:27.929Z,12.07
2022-12-03T22:39:00.725Z,9.95
2022-12-03T22:41:35.004Z,10.77
2022-12-03T22:44:07.802Z,10.30
2022-12-03T22:46:40.824Z,10.95
2022-12-03T22:49:14.549Z,11.25
2022-12-03T22:51:48.258Z,11.43
2022-12-03T22:54:23.921Z,11.07
2022-12-03T22:56:58.593Z,12.07
2022-12-03T22:59:31.552Z,11.05
2022-12-03T23:02:04.548Z,11.68
2022-12-03T23:04:37.276Z,11.07
2022-12-03T23:07:10.506Z,11.60
2022-12-03T23:09:43.291Z,10.57
2022-12-03T23:12:17.438Z,11.55
2022-12-03T23:14:54.232Z,11.20
2022-12-03T23:17:27.057Z,11.60
2022-12-03T23:19:59.820Z,11.23
2022-12-03T23:22:32.649Z,10.88
2022-12-03T23:25:07.314Z,10.70
2022-12-03T23:27:41.531Z,11.60
2022-12-03T23:30:16.103Z,11.60
2022-12-03T23:32:48.878Z,11.63
2022-12-03T23:35:21.678Z,11.02
2022-12-03T23:37:54.503Z,11.35
2022-12-03T23:40:27.263Z,11.38
2022-12-03T23:43:01.585Z,11.07
2022-12-03T23:45:35.345Z,10.57
2022-12-03T23:48:08.159Z,11.43
2022-12-03T23:50:41.576Z,11.00
2022-12-03T23:53:14.753Z,10.43
2022-12-03T23:55:47.492Z,11.13
2022-12-03T23:58:21.661Z,10.70
